sensor_id;sensor_type;location;lat;lon;timestamp;temperature;humidity
17795;DHT22;9021;50.882;4.326;2023-05-10T00:00:33;17.70;99.90
17795;DHT22;9021;50.882;4.326;2023-05-10T00:02:58;14.60;99.90
17795;DHT22;9021;50.882;4.326;2023-05-10T00:05:24;14.70;99.90
17795;DHT22;9021;50.882;4.326;2023-05-10T00:07:49;14.70;99.90
17795;DHT22;9021;50.882;4.326;2023-05-10T00:10:15;14.80;99.90
17795;DHT22;9021;50.882;4.326;2023-05-10T00:12:41;14.80;99.90
17795;DHT22;9021;50.882;4.326;2023-05-10T00:15:07;14.80;99.90
17795;DHT22;9021;50.882;4.326;2023-05-10T00:17:32;14.80;99.90
17795;DHT22;9021;50.882;4.326;2023-05-10T00:19:58;14.80;99.90
17795;DHT22;9021;50.882;4.326;2023-05-10T00:22:23;14.90;99.90
17795;DHT22;9021;50.882;4.326;2023-05-10T00:24:49;14.90;99.90
17795;DHT22;9021;50.882;4.326;2023-05-10T00:27:15;14.90;99.90
17795;DHT22;9021;50.882;4.326;2023-05-10T00:29:40;14.90;99.90
17795;DHT22;9021;50.882;4.326;2023-05-10T00:32:06;14.90;99.90
17795;DHT22;9021;50.882;4.326;2023-05-10T00:34:31;14.90;99.90
17795;DHT22;9021;50.882;4.326;2023-05-10T00:36:57;14.80;99.90
17795;DHT22;9021;50.882;4.326;2023-05-10T00:39:23;14.80;99.90
17795;DHT22;9021;50.882;4.326;2023-05-10T00:41:48;14.70;99.90
17795;DHT22;9021;50.882;4.326;2023-05-10T00:44:14;14.80;99.90
17795;DHT22;9021;50.882;4.326;2023-05-10T00:46:39;14.90;99.90
17795;DHT22;9021;50.882;4.326;2023-05-10T00:49:05;14.90;99.90
17795;DHT22;9021;50.882;4.326;2023-05-10T00:51:31;14.90;99.90
17795;DHT22;9021;50.882;4.326;2023-05-10T00:53:57;14.90;99.90
17795;DHT22;9021;50.882;4.326;2023-05-10T00:56:23;14.80;99.90
17795;DHT22;9021;50.882;4.326;2023-05-10T00:58:50;14.80;99.90
17795;DHT22;9021;50.882;4.326;2023-05-10T01:01:15;14.80;99.90
17795;DHT22;9021;50.882;4.326;2023-05-10T01:03:41;14.80;99.90
17795;DHT22;9021;50.882;4.326;2023-05-10T01:06:07;14.70;99.90
17795;DHT22;9021;50.882;4.326;2023-05-10T01:08:32;14.70;99.90
17795;DHT22;9021;50.882;4.326;2023-05-10T01:10:58;11.60;99.90
17795;DHT22;9021;50.882;4.326;2023-05-10T01:13:30;14.80;99.90
17795;DHT22;9021;50.882;4.326;2023-05-10T01:15:57;14.80;99.90
17795;DHT22;9021;50.882;4.326;2023-05-10T01:18:23;14.80;99.90
17795;DHT22;9021;50.882;4.326;2023-05-10T01:20:57;14.80;99.90
17795;DHT22;9021;50.882;4.326;2023-05-10T01:23:36;14.80;99.90
17795;DHT22;9021;50.882;4.326;2023-05-10T01:31:18;14.80;99.90
17795;DHT22;9021;50.882;4.326;2023-05-10T01:38:43;14.60;99.90
17795;DHT22;9021;50.882;4.326;2023-05-10T01:41:14;14.60;99.90
17795;DHT22;9021;50.882;4.326;2023-05-10T01:43:55;14.70;99.90
17795;DHT22;9021;50.882;4.326;2023-05-10T01:46:27;14.60;99.90
17795;DHT22;9021;50.882;4.326;2023-05-10T01:48:54;14.60;99.90
17795;DHT22;9021;50.882;4.326;2023-05-10T01:51:24;14.60;99.90
17795;DHT22;9021;50.882;4.326;2023-05-10T01:53:51;14.50;99.90
17795;DHT22;9021;50.882;4.326;2023-05-10T01:56:19;14.50;99.90
17795;DHT22;9021;50.882;4.326;2023-05-10T01:58:49;14.40;99.90
17795;DHT22;9021;50.882;4.326;2023-05-10T02:01:16;14.50;99.90
17795;DHT22;9021;50.882;4.326;2023-05-10T02:03:42;14.50;99.90
17795;DHT22;9021;50.882;4.326;2023-05-10T02:06:08;14.50;99.90
17795;DHT22;9021;50.882;4.326;2023-05-10T02:08:35;14.60;99.90
17795;DHT22;9021;50.882;4.326;2023-05-10T02:11:02;14.60;99.90
17795;DHT22;9021;50.882;4.326;2023-05-10T02:13:29;14.70;99.90
17795;DHT22;9021;50.882;4.326;2023-05-10T02:15:55;14.60;99.90
17795;DHT22;9021;50.882;4.326;2023-05-10T02:18:22;14.60;99.90
17795;DHT22;9021;50.882;4.326;2023-05-10T02:20:49;14.70;99.90
17795;DHT22;9021;50.882;4.326;2023-05-10T02:23:15;14.60;99.90
17795;DHT22;9021;50.882;4.326;2023-05-10T02:25:42;14.60;99.90
17795;DHT22;9021;50.882;4.326;2023-05-10T02:28:08;14.60;99.90
17795;DHT22;9021;50.882;4.326;2023-05-10T02:30:35;14.50;99.90
17795;DHT22;9021;50.882;4.326;2023-05-10T02:33:01;14.60;99.90
17795;DHT22;9021;50.882;4.326;2023-05-10T02:35:28;14.60;99.90
17795;DHT22;9021;50.882;4.326;2023-05-10T02:37:54;14.70;99.90
17795;DHT22;9021;50.882;4.326;2023-05-10T02:40:19;14.60;99.90
17795;DHT22;9021;50.882;4.326;2023-05-10T02:42:47;14.60;99.90
17795;DHT22;9021;50.882;4.326;2023-05-10T02:45:15;14.60;99.90
17795;DHT22;9021;50.882;4.326;2023-05-10T02:47:42;14.50;99.90
17795;DHT22;9021;50.882;4.326;2023-05-10T02:50:09;14.50;99.90
17795;DHT22;9021;50.882;4.326;2023-05-10T02:52:37;14.50;99.90
17795;DHT22;9021;50.882;4.326;2023-05-10T02:55:04;14.50;99.90
17795;DHT22;9021;50.882;4.326;2023-05-10T02:57:34;14.40;99.90
17795;DHT22;9021;50.882;4.326;2023-05-10T03:00:00;14.40;99.90
17795;DHT22;9021;50.882;4.326;2023-05-10T03:02:26;14.50;99.90
17795;DHT22;9021;50.882;4.326;2023-05-10T03:04:52;14.60;99.90
17795;DHT22;9021;50.882;4.326;2023-05-10T03:07:17;14.60;99.90
17795;DHT22;9021;50.882;4.326;2023-05-10T03:09:46;14.60;99.90
17795;DHT22;9021;50.882;4.326;2023-05-10T03:19:48;14.80;99.90
17795;DHT22;9021;50.882;4.326;2023-05-10T03:22:19;14.80;99.90
17795;DHT22;9021;50.882;4.326;2023-05-10T03:24:46;14.80;99.90
17795;DHT22;9021;50.882;4.326;2023-05-10T03:27:12;14.80;99.90
17795;DHT22;9021;50.882;4.326;2023-05-10T03:29:39;14.80;99.90
17795;DHT22;9021;50.882;4.326;2023-05-10T03:32:05;14.80;99.90
17795;DHT22;9021;50.882;4.326;2023-05-10T03:34:31;14.70;99.90
17795;DHT22;9021;50.882;4.326;2023-05-10T03:36:56;14.70;99.90
17795;DHT22;9021;50.882;4.326;2023-05-10T03:39:22;14.70;99.90
17795;DHT22;9021;50.882;4.326;2023-05-10T03:41:48;14.70;99.90
17795;DHT22;9021;50.882;4.326;2023-05-10T03:44:13;14.70;99.90
17795;DHT22;9021;50.882;4.326;2023-05-10T03:46:39;14.80;99.90
17795;DHT22;9021;50.882;4.326;2023-05-10T03:49:04;14.80;99.90
17795;DHT22;9021;50.882;4.326;2023-05-10T03:51:30;14.80;99.90
17795;DHT22;9021;50.882;4.326;2023-05-10T03:53:56;14.70;99.90
17795;DHT22;9021;50.882;4.326;2023-05-10T03:56:21;14.70;99.90
17795;DHT22;9021;50.882;4.326;2023-05-10T03:58:47;14.70;99.90
17795;DHT22;9021;50.882;4.326;2023-05-10T04:01:12;14.80;99.90
17795;DHT22;9021;50.882;4.326;2023-05-10T04:03:38;14.80;99.90
17795;DHT22;9021;50.882;4.326;2023-05-10T04:06:04;14.80;99.90
17795;DHT22;9021;50.882;4.326;2023-05-10T04:08:29;14.80;99.90
17795;DHT22;9021;50.882;4.326;2023-05-10T04:11:05;14.80;99.90
17795;DHT22;9021;50.882;4.326;2023-05-10T04:13:31;14.90;99.90
17795;DHT22;9021;50.882;4.326;2023-05-10T04:15:57;14.90;99.90
17795;DHT22;9021;50.882;4.326;2023-05-10T04:18:22;14.90;99.90
17795;DHT22;9021;50.882;4.326;2023-05-10T04:20:48;14.80;99.90
17795;DHT22;9021;50.882;4.326;2023-05-10T04:23:13;14.70;99.90
17795;DHT22;9021;50.882;4.326;2023-05-10T04:25:40;14.80;99.90
17795;DHT22;9021;50.882;4.326;2023-05-10T04:28:05;14.90;99.90
17795;DHT22;9021;50.882;4.326;2023-05-10T04:30:31;14.90;99.90
17795;DHT22;9021;50.882;4.326;2023-05-10T04:32:57;14.90;99.90
17795;DHT22;9021;50.882;4.326;2023-05-10T04:35:23;14.80;99.90
17795;DHT22;9021;50.882;4.326;2023-05-10T04:37:48;14.80;99.90
17795;DHT22;9021;50.882;4.326;2023-05-10T04:40:14;14.70;99.90
17795;DHT22;9021;50.882;4.326;2023-05-10T04:42:40;14.70;99.90
17795;DHT22;9021;50.882;4.326;2023-05-10T04:45:06;14.70;99.90
17795;DHT22;9021;50.882;4.326;2023-05-10T04:47:32;14.60;99.90
17795;DHT22;9021;50.882;4.326;2023-05-10T04:49:58;14.60;99.90
17795;DHT22;9021;50.882;4.326;2023-05-10T04:52:24;14.70;99.90
17795;DHT22;9021;50.882;4.326;2023-05-10T04:54:49;14.70;99.90
17795;DHT22;9021;50.882;4.326;2023-05-10T04:57:14;14.80;99.90
17795;DHT22;9021;50.882;4.326;2023-05-10T04:59:40;14.90;99.90
17795;DHT22;9021;50.882;4.326;2023-05-10T05:02:06;14.90;99.90
17795;DHT22;9021;50.882;4.326;2023-05-10T05:04:31;15.00;99.90
17795;DHT22;9021;50.882;4.326;2023-05-10T05:06:58;15.00;99.90
17795;DHT22;9021;50.882;4.326;2023-05-10T05:09:24;15.00;99.90
17795;DHT22;9021;50.882;4.326;2023-05-10T05:11:49;15.00;99.90
17795;DHT22;9021;50.882;4.326;2023-05-10T05:14:15;15.00;99.90
17795;DHT22;9021;50.882;4.326;2023-05-10T05:16:40;15.00;99.90
17795;DHT22;9021;50.882;4.326;2023-05-10T05:19:06;14.90;99.90
17795;DHT22;9021;50.882;4.326;2023-05-10T05:21:32;15.00;99.90
17795;DHT22;9021;50.882;4.326;2023-05-10T05:23:57;15.00;99.90
17795;DHT22;9021;50.882;4.326;2023-05-10T05:26:23;15.10;99.90
17795;DHT22;9021;50.882;4.326;2023-05-10T05:28:49;15.20;99.90
17795;DHT22;9021;50.882;4.326;2023-05-10T05:31:17;15.20;99.90
17795;DHT22;9021;50.882;4.326;2023-05-10T05:33:43;15.20;99.90
17795;DHT22;9021;50.882;4.326;2023-05-10T05:36:08;15.20;99.90
17795;DHT22;9021;50.882;4.326;2023-05-10T05:38:34;15.30;99.90
17795;DHT22;9021;50.882;4.326;2023-05-10T05:41:00;15.30;99.90
17795;DHT22;9021;50.882;4.326;2023-05-10T05:43:25;15.30;99.90
17795;DHT22;9021;50.882;4.326;2023-05-10T05:45:54;15.30;99.90
17795;DHT22;9021;50.882;4.326;2023-05-10T05:48:20;15.40;99.90
17795;DHT22;9021;50.882;4.326;2023-05-10T05:50:45;15.40;99.90
17795;DHT22;9021;50.882;4.326;2023-05-10T05:53:11;15.60;99.90
17795;DHT22;9021;50.882;4.326;2023-05-10T05:55:37;15.70;99.90
17795;DHT22;9021;50.882;4.326;2023-05-10T05:58:02;15.70;99.90
17795;DHT22;9021;50.882;4.326;2023-05-10T06:00:28;15.70;99.90
17795;DHT22;9021;50.882;4.326;2023-05-10T06:02:54;15.70;99.90
17795;DHT22;9021;50.882;4.326;2023-05-10T06:05:19;15.80;99.90
17795;DHT22;9021;50.882;4.326;2023-05-10T06:07:46;15.80;99.90
17795;DHT22;9021;50.882;4.326;2023-05-10T06:10:11;15.80;99.90
17795;DHT22;9021;50.882;4.326;2023-05-10T06:12:37;15.90;99.90
17795;DHT22;9021;50.882;4.326;2023-05-10T06:15:03;17.70;99.90
17795;DHT22;9021;50.882;4.326;2023-05-10T06:17:29;16.00;99.90
17795;DHT22;9021;50.882;4.326;2023-05-10T06:19:55;15.90;99.90
17795;DHT22;9021;50.882;4.326;2023-05-10T06:22:20;15.80;99.90
17795;DHT22;9021;50.882;4.326;2023-05-10T06:24:48;15.80;99.90
17795;DHT22;9021;50.882;4.326;2023-05-10T06:27:13;15.60;99.90
17795;DHT22;9021;50.882;4.326;2023-05-10T06:29:39;15.50;99.90
17795;DHT22;9021;50.882;4.326;2023-05-10T06:32:04;15.50;99.90
17795;DHT22;9021;50.882;4.326;2023-05-10T06:34:30;15.50;99.90
17795;DHT22;9021;50.882;4.326;2023-05-10T06:36:55;15.50;99.90
17795;DHT22;9021;50.882;4.326;2023-05-10T06:39:21;15.50;99.90
17795;DHT22;9021;50.882;4.326;2023-05-10T06:41:47;15.50;99.90
17795;DHT22;9021;50.882;4.326;2023-05-10T06:44:13;15.60;99.90
17795;DHT22;9021;50.882;4.326;2023-05-10T06:46:38;15.50;99.90
17795;DHT22;9021;50.882;4.326;2023-05-10T06:49:04;15.40;99.90
17795;DHT22;9021;50.882;4.326;2023-05-10T06:51:29;15.30;99.90
17795;DHT22;9021;50.882;4.326;2023-05-10T06:53:55;15.30;99.90
17795;DHT22;9021;50.882;4.326;2023-05-10T06:56:21;16.90;99.90
17795;DHT22;9021;50.882;4.326;2023-05-10T06:58:47;15.30;99.90
17795;DHT22;9021;50.882;4.326;2023-05-10T07:01:13;15.30;99.90
17795;DHT22;9021;50.882;4.326;2023-05-10T07:03:38;15.20;99.90
17795;DHT22;9021;50.882;4.326;2023-05-10T07:06:04;15.10;99.90
17795;DHT22;9021;50.882;4.326;2023-05-10T07:08:30;15.10;99.90
17795;DHT22;9021;50.882;4.326;2023-05-10T07:11:00;15.00;99.90
17795;DHT22;9021;50.882;4.326;2023-05-10T07:13:25;14.90;99.90
17795;DHT22;9021;50.882;4.326;2023-05-10T07:15:51;14.80;99.90
17795;DHT22;9021;50.882;4.326;2023-05-10T07:18:16;14.70;99.90
17795;DHT22;9021;50.882;4.326;2023-05-10T07:20:42;14.70;99.90
17795;DHT22;9021;50.882;4.326;2023-05-10T07:23:07;14.70;99.90
17795;DHT22;9021;50.882;4.326;2023-05-10T07:25:33;14.80;99.90
17795;DHT22;9021;50.882;4.326;2023-05-10T07:27:58;13.90;99.90
17795;DHT22;9021;50.882;4.326;2023-05-10T07:30:24;14.70;99.90
17795;DHT22;9021;50.882;4.326;2023-05-10T07:32:50;14.60;99.90
17795;DHT22;9021;50.882;4.326;2023-05-10T07:35:15;14.70;99.90
17795;DHT22;9021;50.882;4.326;2023-05-10T07:37:40;14.80;99.90
17795;DHT22;9021;50.882;4.326;2023-05-10T07:40:06;14.80;99.90
17795;DHT22;9021;50.882;4.326;2023-05-10T07:42:32;14.80;99.90
17795;DHT22;9021;50.882;4.326;2023-05-10T07:44:57;14.80;99.90
17795;DHT22;9021;50.882;4.326;2023-05-10T07:47:23;14.70;99.90
17795;DHT22;9021;50.882;4.326;2023-05-10T07:49:49;14.80;99.90
17795;DHT22;9021;50.882;4.326;2023-05-10T07:52:14;14.70;99.90
17795;DHT22;9021;50.882;4.326;2023-05-10T07:54:40;14.50;99.90
17795;DHT22;9021;50.882;4.326;2023-05-10T07:57:06;14.60;99.90
17795;DHT22;9021;50.882;4.326;2023-05-10T07:59:31;14.60;99.90
17795;DHT22;9021;50.882;4.326;2023-05-10T08:01:58;14.50;99.90
17795;DHT22;9021;50.882;4.326;2023-05-10T08:04:23;14.50;99.90
17795;DHT22;9021;50.882;4.326;2023-05-10T08:06:49;14.50;99.90
17795;DHT22;9021;50.882;4.326;2023-05-10T08:09:15;14.60;99.90
17795;DHT22;9021;50.882;4.326;2023-05-10T08:11:41;14.70;99.90
17795;DHT22;9021;50.882;4.326;2023-05-10T08:14:06;14.70;99.90
17795;DHT22;9021;50.882;4.326;2023-05-10T08:16:32;14.80;99.90
17795;DHT22;9021;50.882;4.326;2023-05-10T08:18:57;15.00;99.90
17795;DHT22;9021;50.882;4.326;2023-05-10T08:21:23;15.10;99.90
17795;DHT22;9021;50.882;4.326;2023-05-10T08:23:48;16.10;99.90
17795;DHT22;9021;50.882;4.326;2023-05-10T08:26:14;15.10;99.90
17795;DHT22;9021;50.882;4.326;2023-05-10T08:28:40;15.00;99.90
17795;DHT22;9021;50.882;4.326;2023-05-10T08:31:05;15.10;99.90
17795;DHT22;9021;50.882;4.326;2023-05-10T08:33:31;15.20;99.90
17795;DHT22;9021;50.882;4.326;2023-05-10T08:35:56;15.10;99.90
17795;DHT22;9021;50.882;4.326;2023-05-10T08:38:22;15.10;99.90
17795;DHT22;9021;50.882;4.326;2023-05-10T08:40:48;15.20;99.90
17795;DHT22;9021;50.882;4.326;2023-05-10T08:43:14;15.20;99.90
17795;DHT22;9021;50.882;4.326;2023-05-10T08:45:43;15.30;99.90
17795;DHT22;9021;50.882;4.326;2023-05-10T08:48:10;15.20;99.90
17795;DHT22;9021;50.882;4.326;2023-05-10T08:50:36;15.40;99.90
17795;DHT22;9021;50.882;4.326;2023-05-10T08:53:04;15.30;99.90
17795;DHT22;9021;50.882;4.326;2023-05-10T08:55:29;15.10;99.90
17795;DHT22;9021;50.882;4.326;2023-05-10T08:57:55;15.10;99.90
17795;DHT22;9021;50.882;4.326;2023-05-10T09:00:21;15.20;99.90
17795;DHT22;9021;50.882;4.326;2023-05-10T09:02:48;15.10;99.90
17795;DHT22;9021;50.882;4.326;2023-05-10T09:05:14;15.30;99.90
17795;DHT22;9021;50.882;4.326;2023-05-10T09:07:41;15.10;99.90
17795;DHT22;9021;50.882;4.326;2023-05-10T09:10:07;15.00;99.90
17795;DHT22;9021;50.882;4.326;2023-05-10T09:12:34;14.90;99.90
17795;DHT22;9021;50.882;4.326;2023-05-10T09:14:59;14.90;99.90
17795;DHT22;9021;50.882;4.326;2023-05-10T09:17:25;15.00;99.90
17795;DHT22;9021;50.882;4.326;2023-05-10T09:19:57;15.10;99.90
17795;DHT22;9021;50.882;4.326;2023-05-10T09:22:22;15.10;99.90
17795;DHT22;9021;50.882;4.326;2023-05-10T09:25:02;15.00;99.90
17795;DHT22;9021;50.882;4.326;2023-05-10T09:27:28;15.00;99.90
17795;DHT22;9021;50.882;4.326;2023-05-10T09:29:53;14.90;99.90
17795;DHT22;9021;50.882;4.326;2023-05-10T09:32:20;14.90;99.90
17795;DHT22;9021;50.882;4.326;2023-05-10T09:34:45;14.90;99.90
17795;DHT22;9021;50.882;4.326;2023-05-10T09:37:14;14.80;99.90
17795;DHT22;9021;50.882;4.326;2023-05-10T09:39:40;14.70;99.90
17795;DHT22;9021;50.882;4.326;2023-05-10T09:42:07;14.70;99.90
17795;DHT22;9021;50.882;4.326;2023-05-10T09:44:33;14.80;99.90
17795;DHT22;9021;50.882;4.326;2023-05-10T09:47:00;17.60;99.90
17795;DHT22;9021;50.882;4.326;2023-05-10T09:49:25;15.00;99.90
17795;DHT22;9021;50.882;4.326;2023-05-10T09:52:12;15.00;99.90
17795;DHT22;9021;50.882;4.326;2023-05-10T09:54:36;15.00;99.90
17795;DHT22;9021;50.882;4.326;2023-05-10T09:57:02;14.90;99.90
17795;DHT22;9021;50.882;4.326;2023-05-10T09:59:28;14.90;99.90
17795;DHT22;9021;50.882;4.326;2023-05-10T10:01:57;15.20;99.90
17795;DHT22;9021;50.882;4.326;2023-05-10T10:04:23;15.20;99.90
17795;DHT22;9021;50.882;4.326;2023-05-10T10:07:04;15.10;99.90
17795;DHT22;9021;50.882;4.326;2023-05-10T10:09:30;15.10;99.90
17795;DHT22;9021;50.882;4.326;2023-05-10T10:11:56;15.10;99.90
17795;DHT22;9021;50.882;4.326;2023-05-10T10:14:22;15.10;99.90
17795;DHT22;9021;50.882;4.326;2023-05-10T10:16:48;15.10;99.90
17795;DHT22;9021;50.882;4.326;2023-05-10T10:19:14;15.30;99.90
17795;DHT22;9021;50.882;4.326;2023-05-10T10:21:40;15.40;99.90
17795;DHT22;9021;50.882;4.326;2023-05-10T10:24:06;15.30;99.90
17795;DHT22;9021;50.882;4.326;2023-05-10T10:26:35;15.30;99.90
17795;DHT22;9021;50.882;4.326;2023-05-10T10:31:38;15.40;99.90
17795;DHT22;9021;50.882;4.326;2023-05-10T10:34:17;15.60;99.90
17795;DHT22;9021;50.882;4.326;2023-05-10T10:36:47;16.00;99.90
17795;DHT22;9021;50.882;4.326;2023-05-10T10:39:13;16.20;99.90
17795;DHT22;9021;50.882;4.326;2023-05-10T10:41:39;16.30;99.90
17795;DHT22;9021;50.882;4.326;2023-05-10T10:57:25;15.90;99.90
17795;DHT22;9021;50.882;4.326;2023-05-10T11:02:43;15.90;99.90
17795;DHT22;9021;50.882;4.326;2023-05-10T11:07:55;16.10;99.90
17795;DHT22;9021;50.882;4.326;2023-05-10T11:10:21;16.20;99.90
17795;DHT22;9021;50.882;4.326;2023-05-10T11:13:02;16.40;99.90
17795;DHT22;9021;50.882;4.326;2023-05-10T11:15:31;16.40;99.90
17795;DHT22;9021;50.882;4.326;2023-05-10T11:17:57;16.20;99.90
17795;DHT22;9021;50.882;4.326;2023-05-10T11:20:23;16.30;99.90
17795;DHT22;9021;50.882;4.326;2023-05-10T11:22:54;16.40;99.90
17795;DHT22;9021;50.882;4.326;2023-05-10T11:25:23;16.60;99.90
17795;DHT22;9021;50.882;4.326;2023-05-10T11:27:51;16.80;99.90
17795;DHT22;9021;50.882;4.326;2023-05-10T11:30:16;16.60;99.90
17795;DHT22;9021;50.882;4.326;2023-05-10T11:32:42;16.80;99.90
17795;DHT22;9021;50.882;4.326;2023-05-10T11:35:08;16.70;99.90
17795;DHT22;9021;50.882;4.326;2023-05-10T11:37:34;16.60;99.90
17795;DHT22;9021;50.882;4.326;2023-05-10T11:40:00;16.80;99.90
17795;DHT22;9021;50.882;4.326;2023-05-10T11:42:27;16.90;99.90
17795;DHT22;9021;50.882;4.326;2023-05-10T11:44:53;17.00;99.90
17795;DHT22;9021;50.882;4.326;2023-05-10T11:47:18;16.90;99.90
17795;DHT22;9021;50.882;4.326;2023-05-10T11:49:44;16.80;99.90
17795;DHT22;9021;50.882;4.326;2023-05-10T11:52:10;16.70;99.90
17795;DHT22;9021;50.882;4.326;2023-05-10T11:54:44;16.50;99.90
17795;DHT22;9021;50.882;4.326;2023-05-10T11:57:10;16.50;99.90
17795;DHT22;9021;50.882;4.326;2023-05-10T11:59:36;16.50;99.90
17795;DHT22;9021;50.882;4.326;2023-05-10T12:02:01;16.60;99.90
17795;DHT22;9021;50.882;4.326;2023-05-10T12:04:28;16.60;99.90
17795;DHT22;9021;50.882;4.326;2023-05-10T12:06:54;16.60;99.90
17795;DHT22;9021;50.882;4.326;2023-05-10T12:09:20;16.80;99.90
17795;DHT22;9021;50.882;4.326;2023-05-10T12:11:46;17.00;99.90
17795;DHT22;9021;50.882;4.326;2023-05-10T12:14:11;17.00;99.90
17795;DHT22;9021;50.882;4.326;2023-05-10T12:16:37;16.90;99.90
17795;DHT22;9021;50.882;4.326;2023-05-10T12:19:02;17.00;99.90
17795;DHT22;9021;50.882;4.326;2023-05-10T12:21:29;17.20;99.90
17795;DHT22;9021;50.882;4.326;2023-05-10T12:23:59;17.30;99.90
17795;DHT22;9021;50.882;4.326;2023-05-10T12:26:25;17.40;99.90
17795;DHT22;9021;50.882;4.326;2023-05-10T12:28:52;17.50;99.90
17795;DHT22;9021;50.882;4.326;2023-05-10T12:31:18;17.70;99.90
17795;DHT22;9021;50.882;4.326;2023-05-10T12:33:44;17.60;99.90
17795;DHT22;9021;50.882;4.326;2023-05-10T12:36:11;17.60;99.90
17795;DHT22;9021;50.882;4.326;2023-05-10T12:38:37;17.50;99.90
17795;DHT22;9021;50.882;4.326;2023-05-10T12:41:08;17.60;99.90
17795;DHT22;9021;50.882;4.326;2023-05-10T12:43:34;17.60;99.90
17795;DHT22;9021;50.882;4.326;2023-05-10T12:48:32;17.70;99.90
17795;DHT22;9021;50.882;4.326;2023-05-10T12:50:59;17.60;99.90
17795;DHT22;9021;50.882;4.326;2023-05-10T12:53:25;17.90;99.90
17795;DHT22;9021;50.882;4.326;2023-05-10T12:55:51;18.10;99.90
17795;DHT22;9021;50.882;4.326;2023-05-10T12:58:16;18.10;99.90
17795;DHT22;9021;50.882;4.326;2023-05-10T13:00:42;18.40;99.90
17795;DHT22;9021;50.882;4.326;2023-05-10T13:03:08;18.60;99.90
17795;DHT22;9021;50.882;4.326;2023-05-10T13:05:35;18.90;99.90
17795;DHT22;9021;50.882;4.326;2023-05-10T13:08:00;19.30;99.90
17795;DHT22;9021;50.882;4.326;2023-05-10T13:10:26;19.50;99.90
17795;DHT22;9021;50.882;4.326;2023-05-10T13:12:52;20.00;99.90
17795;DHT22;9021;50.882;4.326;2023-05-10T13:15:17;20.20;99.90
17795;DHT22;9021;50.882;4.326;2023-05-10T13:17:43;20.60;99.90
17795;DHT22;9021;50.882;4.326;2023-05-10T13:20:08;20.70;99.90
17795;DHT22;9021;50.882;4.326;2023-05-10T13:22:35;20.40;99.90
17795;DHT22;9021;50.882;4.326;2023-05-10T13:25:00;20.20;99.90
17795;DHT22;9021;50.882;4.326;2023-05-10T13:27:26;20.20;99.90
17795;DHT22;9021;50.882;4.326;2023-05-10T13:29:51;20.20;99.90
17795;DHT22;9021;50.882;4.326;2023-05-10T13:32:17;20.30;99.90
17795;DHT22;9021;50.882;4.326;2023-05-10T13:34:42;20.40;99.90
17795;DHT22;9021;50.882;4.326;2023-05-10T13:37:08;20.60;99.90
17795;DHT22;9021;50.882;4.326;2023-05-10T13:39:34;20.80;99.90
17795;DHT22;9021;50.882;4.326;2023-05-10T13:42:00;21.00;99.90
17795;DHT22;9021;50.882;4.326;2023-05-10T13:44:25;21.20;99.90
17795;DHT22;9021;50.882;4.326;2023-05-10T13:46:51;20.90;99.90
17795;DHT22;9021;50.882;4.326;2023-05-10T13:49:16;20.70;99.90
17795;DHT22;9021;50.882;4.326;2023-05-10T13:51:42;20.80;99.90
17795;DHT22;9021;50.882;4.326;2023-05-10T13:54:08;20.80;99.90
17795;DHT22;9021;50.882;4.326;2023-05-10T13:56:34;20.80;99.90
17795;DHT22;9021;50.882;4.326;2023-05-10T13:58:59;20.60;99.90
17795;DHT22;9021;50.882;4.326;2023-05-10T14:01:25;20.60;99.90
17795;DHT22;9021;50.882;4.326;2023-05-10T14:03:51;20.60;99.90
17795;DHT22;9021;50.882;4.326;2023-05-10T14:06:16;20.60;99.90
17795;DHT22;9021;50.882;4.326;2023-05-10T14:08:42;20.30;99.90
17795;DHT22;9021;50.882;4.326;2023-05-10T14:11:08;20.10;99.90
17795;DHT22;9021;50.882;4.326;2023-05-10T14:13:33;20.20;99.90
17795;DHT22;9021;50.882;4.326;2023-05-10T14:15:59;19.80;99.90
17795;DHT22;9021;50.882;4.326;2023-05-10T14:18:28;19.80;99.90
17795;DHT22;9021;50.882;4.326;2023-05-10T14:20:54;19.90;99.90
17795;DHT22;9021;50.882;4.326;2023-05-10T14:23:21;20.10;99.90
17795;DHT22;9021;50.882;4.326;2023-05-10T14:25:49;20.20;99.90
17795;DHT22;9021;50.882;4.326;2023-05-10T14:28:16;20.30;99.90
17795;DHT22;9021;50.882;4.326;2023-05-10T14:30:42;20.00;99.90
17795;DHT22;9021;50.882;4.326;2023-05-10T14:33:08;20.10;99.90
17795;DHT22;9021;50.882;4.326;2023-05-10T14:35:34;20.10;99.90
17795;DHT22;9021;50.882;4.326;2023-05-10T14:37:59;20.10;99.90
17795;DHT22;9021;50.882;4.326;2023-05-10T14:40:25;20.10;99.90
17795;DHT22;9021;50.882;4.326;2023-05-10T14:42:51;19.90;99.90
17795;DHT22;9021;50.882;4.326;2023-05-10T14:45:18;19.80;99.90
17795;DHT22;9021;50.882;4.326;2023-05-10T14:47:43;19.50;99.90
17795;DHT22;9021;50.882;4.326;2023-05-10T14:50:09;19.40;99.90
17795;DHT22;9021;50.882;4.326;2023-05-10T14:52:34;19.10;99.90
17795;DHT22;9021;50.882;4.326;2023-05-10T14:55:00;19.00;99.90
17795;DHT22;9021;50.882;4.326;2023-05-10T14:57:26;18.90;99.90
17795;DHT22;9021;50.882;4.326;2023-05-10T14:59:55;18.90;99.90
17795;DHT22;9021;50.882;4.326;2023-05-10T15:02:20;18.70;99.90
17795;DHT22;9021;50.882;4.326;2023-05-10T15:04:46;18.30;99.90
17795;DHT22;9021;50.882;4.326;2023-05-10T15:07:12;18.30;99.90
17795;DHT22;9021;50.882;4.326;2023-05-10T15:09:39;18.10;99.90
17795;DHT22;9021;50.882;4.326;2023-05-10T15:12:05;17.80;99.90
17795;DHT22;9021;50.882;4.326;2023-05-10T15:14:30;17.50;99.90
17795;DHT22;9021;50.882;4.326;2023-05-10T15:16:58;17.40;99.90
17795;DHT22;9021;50.882;4.326;2023-05-10T15:19:23;17.50;99.90
17795;DHT22;9021;50.882;4.326;2023-05-10T15:21:49;17.60;99.90
17795;DHT22;9021;50.882;4.326;2023-05-10T15:24:15;20.10;99.90
17795;DHT22;9021;50.882;4.326;2023-05-10T15:26:40;17.50;99.90
17795;DHT22;9021;50.882;4.326;2023-05-10T15:29:06;17.60;99.90
17795;DHT22;9021;50.882;4.326;2023-05-10T15:31:32;17.60;99.90
17795;DHT22;9021;50.882;4.326;2023-05-10T15:34:00;17.60;99.90
17795;DHT22;9021;50.882;4.326;2023-05-10T15:36:25;17.60;99.90
17795;DHT22;9021;50.882;4.326;2023-05-10T15:38:51;17.60;99.90
17795;DHT22;9021;50.882;4.326;2023-05-10T15:41:16;17.60;99.90
17795;DHT22;9021;50.882;4.326;2023-05-10T15:43:42;17.70;99.90
17795;DHT22;9021;50.882;4.326;2023-05-10T15:46:07;17.70;99.90
17795;DHT22;9021;50.882;4.326;2023-05-10T15:48:33;17.60;99.90
17795;DHT22;9021;50.882;4.326;2023-05-10T15:50:59;17.60;99.90
17795;DHT22;9021;50.882;4.326;2023-05-10T15:53:24;17.60;99.90
17795;DHT22;9021;50.882;4.326;2023-05-10T15:55:50;17.70;99.90
17795;DHT22;9021;50.882;4.326;2023-05-10T15:58:16;17.90;99.90
17795;DHT22;9021;50.882;4.326;2023-05-10T16:00:41;18.00;99.90
17795;DHT22;9021;50.882;4.326;2023-05-10T16:03:07;18.20;99.90
17795;DHT22;9021;50.882;4.326;2023-05-10T16:05:32;18.30;99.90
17795;DHT22;9021;50.882;4.326;2023-05-10T16:07:58;18.30;99.90
17795;DHT22;9021;50.882;4.326;2023-05-10T16:10:24;18.40;99.90
17795;DHT22;9021;50.882;4.326;2023-05-10T16:12:50;18.50;99.90
17795;DHT22;9021;50.882;4.326;2023-05-10T16:15:15;18.60;99.90
17795;DHT22;9021;50.882;4.326;2023-05-10T16:17:41;18.60;99.90
17795;DHT22;9021;50.882;4.326;2023-05-10T16:20:07;18.60;99.90